createdAt,value
2018-05-08T00:00:19.778Z,96.70
2018-05-08T00:02:47.935Z,97.00
2018-05-08T00:05:16.048Z,97.10
2018-05-08T00:07:44.134Z,97.10
2018-05-08T00:10:12.241Z,97.40
2018-05-08T00:12:40.312Z,97.70
2018-05-08T00:15:08.387Z,97.70
2018-05-08T00:17:37.637Z,97.80
2018-05-08T00:20:09.248Z,98.10
2018-05-08T00:22:37.307Z,98.30
2018-05-08T00:27:59.055Z,98.40
2018-05-08T00:30:27.228Z,98.80
2018-05-08T00:32:55.306Z,99.10
2018-05-08T00:35:23.458Z,99.10
2018-05-08T00:37:51.552Z,98.60
2018-05-08T00:40:20.583Z,98.60
2018-05-08T00:42:48.667Z,99.90
2018-05-08T00:45:16.769Z,99.90
2018-05-08T00:47:44.863Z,99.90
2018-05-08T00:50:12.958Z,99.90
2018-05-08T00:52:41.807Z,99.90
2018-05-08T00:55:09.902Z,99.90
2018-05-08T00:57:38.819Z,99.90
2018-05-08T01:00:07.911Z,99.90
2018-05-08T01:02:35.991Z,99.90
2018-05-08T01:05:04.215Z,99.90
2018-05-08T01:07:32.192Z,99.90
2018-05-08T01:10:01.171Z,99.90
2018-05-08T01:12:29.251Z,99.90
2018-05-08T01:14:57.323Z,99.90
2018-05-08T01:17:25.419Z,99.90
2018-05-08T01:20:03.789Z,99.90
2018-05-08T01:22:31.862Z,99.90
2018-05-08T01:24:59.942Z,99.90
2018-05-08T01:27:28.054Z,99.90
2018-05-08T01:29:56.886Z,99.90
2018-05-08T01:32:24.954Z,99.90
2018-05-08T01:34:53.019Z,99.90
2018-05-08T01:37:25.183Z,99.90
2018-05-08T01:39:54.995Z,99.90
2018-05-08T01:42:23.085Z,99.90
2018-05-08T01:44:51.162Z,99.90
2018-05-08T01:47:19.234Z,99.90
2018-05-08T01:49:47.316Z,99.90
2018-05-08T01:52:15.382Z,99.90
2018-05-08T01:54:43.474Z,99.90
2018-05-08T01:57:11.558Z,99.90
2018-05-08T01:59:41.362Z,99.90
2018-05-08T02:02:09.462Z,99.90
2018-05-08T02:04:37.619Z,99.90
2018-05-08T02:07:06.506Z,99.90
2018-05-08T02:09:36.313Z,99.90
2018-05-08T02:12:05.186Z,99.90
2018-05-08T02:14:33.290Z,99.90
2018-05-08T02:17:01.394Z,99.90
2018-05-08T02:19:29.514Z,99.90
2018-05-08T02:21:57.591Z,99.90
2018-05-08T02:24:26.457Z,99.90
2018-05-08T02:26:54.524Z,99.90
2018-05-08T02:29:23.525Z,99.90
2018-05-08T02:31:51.593Z,99.90
2018-05-08T02:34:19.684Z,99.90
2018-05-08T02:36:47.739Z,99.90
2018-05-08T02:39:50.946Z,99.90
2018-05-08T02:42:19.008Z,99.90
2018-05-08T02:44:47.078Z,99.90
2018-05-08T02:47:15.147Z,99.90
2018-05-08T02:49:50.806Z,99.90
2018-05-08T02:52:18.899Z,99.90
2018-05-08T02:54:47.726Z,99.90
2018-05-08T02:57:15.818Z,99.90
2018-05-08T02:59:52.370Z,99.90
2018-05-08T03:02:20.473Z,99.90
2018-05-08T03:04:48.535Z,99.90
2018-05-08T03:07:16.608Z,99.90
2018-05-08T03:09:49.916Z,99.90
2018-05-08T03:12:17.990Z,99.90
2018-05-08T03:14:46.050Z,99.90
2018-05-08T03:17:14.118Z,99.90
2018-05-08T03:19:46.366Z,99.90
2018-05-08T03:22:14.496Z,99.90
2018-05-08T03:24:42.510Z,99.90
2018-05-08T03:27:10.595Z,99.90
2018-05-08T03:29:59.720Z,99.90
2018-05-08T03:32:27.797Z,99.90
2018-05-08T03:34:55.863Z,99.90
2018-05-08T03:37:23.934Z,99.90
2018-05-08T03:39:52.951Z,99.90
2018-05-08T03:42:21.025Z,99.90
2018-05-08T03:44:49.086Z,99.90
2018-05-08T03:47:17.159Z,99.90
2018-05-08T03:49:45.242Z,99.90
2018-05-08T03:52:13.313Z,99.90
2018-05-08T03:54:41.377Z,99.90
2018-05-08T03:57:09.454Z,99.90
2018-05-08T03:59:37.518Z,99.90
2018-05-08T04:02:23.599Z,99.90
2018-05-08T04:05:09.486Z,99.90
2018-05-08T04:07:56.138Z,99.90
2018-05-08T04:10:31.550Z,99.90
2018-05-08T04:12:59.624Z,99.90
2018-05-08T04:15:27.734Z,99.90
2018-05-08T04:17:55.770Z,99.90
2018-05-08T04:20:27.719Z,99.90
2018-05-08T04:22:55.790Z,99.90
2018-05-08T04:25:23.855Z,99.90
2018-05-08T04:27:51.922Z,99.90
2018-05-08T04:30:20.935Z,99.90
2018-05-08T04:32:49.011Z,99.90
2018-05-08T04:35:17.077Z,99.90
2018-05-08T04:37:45.166Z,99.90
2018-05-08T04:40:21.717Z,99.90
2018-05-08T04:42:49.797Z,99.90
2018-05-08T04:45:17.866Z,99.90
2018-05-08T04:47:45.990Z,99.90
2018-05-08T04:50:15.958Z,99.90
2018-05-08T04:52:44.038Z,99.90
2018-05-08T04:55:12.114Z,99.90
2018-05-08T04:57:40.178Z,99.90
2018-05-08T05:00:08.246Z,99.90
2018-05-08T05:02:36.343Z,99.90
2018-05-08T05:05:04.407Z,99.90
2018-05-08T05:07:32.478Z,99.90
2018-05-08T05:10:11.375Z,99.90
2018-05-08T05:12:39.451Z,99.90
2018-05-08T05:15:07.518Z,99.90
2018-05-08T05:17:35.582Z,99.90
2018-05-08T05:20:05.610Z,99.90
2018-05-08T05:22:33.674Z,99.90
2018-05-08T05:25:01.757Z,99.90
2018-05-08T05:27:29.826Z,99.90
2018-05-08T05:29:58.818Z,99.90
2018-05-08T05:32:26.910Z,99.90
2018-05-08T05:34:54.981Z,99.90
2018-05-08T05:37:23.054Z,99.90
2018-05-08T05:39:51.131Z,99.90
2018-05-08T05:42:20.018Z,99.90
2018-05-08T05:44:48.090Z,99.90
2018-05-08T05:47:16.944Z,99.90
2018-05-08T05:49:45.017Z,99.90
2018-05-08T05:52:13.094Z,99.90
2018-05-08T05:54:41.194Z,99.90
2018-05-08T05:57:09.279Z,99.90
2018-05-08T06:00:13.112Z,99.90
2018-05-08T06:02:41.951Z,99.90
2018-05-08T06:05:10.026Z,99.90
2018-05-08T06:07:38.111Z,99.90
2018-05-08T06:10:12.638Z,99.90
2018-05-08T06:12:41.598Z,99.90
2018-05-08T06:15:09.747Z,99.90
2018-05-08T06:17:37.851Z,99.90
2018-05-08T06:20:07.918Z,99.90
2018-05-08T06:22:36.100Z,99.90
2018-05-08T06:25:04.240Z,99.90
2018-05-08T06:27:33.131Z,99.90
2018-05-08T06:30:16.108Z,99.90
2018-05-08T06:32:44.211Z,99.90
2018-05-08T06:35:13.115Z,99.10
2018-05-08T06:37:41.993Z,98.10
2018-05-08T06:40:10.280Z,98.00
2018-05-08T06:42:38.251Z,97.90
2018-05-08T06:45:07.174Z,93.20
2018-05-08T06:47:36.416Z,94.70
2018-05-08T06:50:05.702Z,93.40
2018-05-08T06:52:33.787Z,93.30
2018-05-08T06:55:01.964Z,92.00
2018-05-08T06:57:29.986Z,90.30
2018-05-08T06:59:58.103Z,89.80
2018-05-08T07:02:26.223Z,84.30
2018-05-08T07:04:54.330Z,83.00
2018-05-08T07:07:22.484Z,80.60
2018-05-08T07:09:51.568Z,80.30
2018-05-08T07:12:20.452Z,78.50
2018-05-08T07:14:48.594Z,78.40
2018-05-08T07:17:17.459Z,77.60
2018-05-08T07:20:00.594Z,77.60
2018-05-08T07:22:28.698Z,77.80
2018-05-08T07:24:56.827Z,75.10
2018-05-08T07:27:24.930Z,71.80
2018-05-08T07:29:58.063Z,69.90
2018-05-08T07:32:26.117Z,69.90
2018-05-08T07:34:54.227Z,69.00
2018-05-08T07:37:22.343Z,67.60
2018-05-08T07:42:31.070Z,64.80
2018-05-08T07:44:59.962Z,63.60
2018-05-08T07:47:28.854Z,61.50
2018-05-08T07:49:57.765Z,64.10
2018-05-08T07:52:25.932Z,64.00
2018-05-08T07:54:54.074Z,62.20
2018-05-08T07:57:22.195Z,61.10
2018-05-08T08:00:05.564Z,61.60
2018-05-08T08:02:34.773Z,59.40
2018-05-08T08:05:02.834Z,59.90
2018-05-08T08:07:32.037Z,61.10
2018-05-08T08:10:08.210Z,60.00
2018-05-08T08:12:37.156Z,61.10
2018-05-08T08:15:05.303Z,60.70
2018-05-08T08:17:33.419Z,58.90
2018-05-08T08:20:01.510Z,58.30
2018-05-08T08:22:29.602Z,57.40
2018-05-08T08:24:58.464Z,55.40
2018-05-08T08:27:26.631Z,55.30
2018-05-08T08:29:55.640Z,55.90
2018-05-08T08:32:23.744Z,55.20
2018-05-08T08:34:51.842Z,53.60
2018-05-08T08:37:19.922Z,54.80
2018-05-08T08:39:48.938Z,54.00
2018-05-08T08:42:17.024Z,51.50
2018-05-08T08:44:45.123Z,49.70
2018-05-08T08:47:13.255Z,49.10
2018-05-08T08:49:45.404Z,48.80
2018-05-08T08:52:13.515Z,49.60
2018-05-08T08:54:42.389Z,50.40
2018-05-08T08:57:10.511Z,50.30
2018-05-08T08:59:48.934Z,49.80
2018-05-08T09:02:17.100Z,49.10
2018-05-08T09:04:45.236Z,48.20
2018-05-08T09:07:13.333Z,47.40
2018-05-08T09:09:42.413Z,47.70
2018-05-08T09:12:10.575Z,47.50
2018-05-08T09:14:39.454Z,45.00
2018-05-08T09:17:07.582Z,45.00
2018-05-08T09:19:35.681Z,42.80
2018-05-08T09:22:03.828Z,44.00
2018-05-08T09:24:31.976Z,43.90
2018-05-08T09:27:00.127Z,42.80
2018-05-08T09:29:28.244Z,44.30
2018-05-08T09:31:56.387Z,45.50
2018-05-08T09:34:24.547Z,42.20
2018-05-08T09:36:53.467Z,40.20
2018-05-08T09:39:31.049Z,40.20
2018-05-08T09:41:59.206Z,40.40
2018-05-08T09:44:28.099Z,40.60
2018-05-08T09:46:56.967Z,40.00
2018-05-08T09:49:25.055Z,39.90
2018-05-08T09:51:53.890Z,39.80
2018-05-08T09:54:21.970Z,39.10
2018-05-08T09:56:50.044Z,38.60
2018-05-08T09:59:18.122Z,37.60
2018-05-08T10:01:46.210Z,38.70
2018-05-08T10:04:14.311Z,35.90
2018-05-08T10:06:43.220Z,35.70
2018-05-08T10:09:11.315Z,35.70
2018-05-08T10:11:39.430Z,35.70
2018-05-08T10:14:08.745Z,37.10
2018-05-08T10:16:38.312Z,34.60
2018-05-08T10:19:13.450Z,34.60
2018-05-08T10:21:41.608Z,35.70
2018-05-08T10:24:09.701Z,36.40
2018-05-08T10:26:37.862Z,36.90
2018-05-08T10:29:05.974Z,36.30
2018-05-08T10:31:34.838Z,36.30
2018-05-08T10:34:02.955Z,36.20
2018-05-08T10:36:31.121Z,34.10
2018-05-08T10:38:59.221Z,33.70
2018-05-08T10:41:27.367Z,34.10
2018-05-08T10:43:55.510Z,33.60
2018-05-08T10:46:23.620Z,34.00
2018-05-08T10:49:17.742Z,33.70
2018-05-08T10:51:45.932Z,34.80
2018-05-08T10:54:14.037Z,33.20
2018-05-08T10:56:42.205Z,32.60
2018-05-08T10:59:18.271Z,32.60
2018-05-08T11:01:46.539Z,32.50
2018-05-08T11:04:14.578Z,32.00
2018-05-08T11:06:42.757Z,31.70
2018-05-08T11:09:12.781Z,31.20
2018-05-08T11:11:40.907Z,32.80
2018-05-08T11:14:09.021Z,32.00
2018-05-08T11:16:37.975Z,32.30
2018-05-08T11:19:25.231Z,32.30
2018-05-08T11:21:53.379Z,32.50
2018-05-08T11:24:21.503Z,32.80
2018-05-08T11:26:50.496Z,31.40
2018-05-08T11:29:20.497Z,31.30
2018-05-08T11:31:49.434Z,31.50
2018-05-08T11:34:17.588Z,31.40
2018-05-08T11:36:45.752Z,30.90
2018-05-08T11:39:28.771Z,31.20
2018-05-08T11:41:57.691Z,30.80
2018-05-08T11:44:25.827Z,30.80
2018-05-08T11:46:54.711Z,29.90
2018-05-08T11:49:25.575Z,30.00
2018-05-08T11:51:53.728Z,30.00
2018-05-08T11:54:21.928Z,30.60
2018-05-08T11:56:50.057Z,30.00
2018-05-08T11:59:18.176Z,29.70
2018-05-08T12:01:46.281Z,29.50
2018-05-08T12:04:14.477Z,36.30
2018-05-08T12:06:42.624Z,29.90
2018-05-08T12:09:15.022Z,28.90
2018-05-08T12:11:43.088Z,36.70
2018-05-08T12:14:11.207Z,37.20
2018-05-08T12:16:39.324Z,29.50
2018-05-08T12:19:30.344Z,28.50
2018-05-08T12:21:58.470Z,28.90
2018-05-08T12:24:26.580Z,29.20
2018-05-08T12:26:54.729Z,31.10
2018-05-08T12:29:26.669Z,30.00
2018-05-08T12:31:54.785Z,30.00
2018-05-08T12:34:25.672Z,29.80
2018-05-08T12:36:53.769Z,29.20
2018-05-08T12:39:30.963Z,29.40
2018-05-08T12:41:59.072Z,28.40
2018-05-08T12:44:28.306Z,27.80
2018-05-08T12:46:56.387Z,27.50
2018-05-08T12:49:52.523Z,28.00
2018-05-08T12:52:20.597Z,28.00
2018-05-08T12:54:48.696Z,27.20
2018-05-08T12:57:16.767Z,27.00
2018-05-08T12:59:45.751Z,28.20
2018-05-08T13:02:13.833Z,26.60
2018-05-08T13:04:41.971Z,26.50
2018-05-08T13:07:10.047Z,27.00
2018-05-08T13:09:39.121Z,27.80
2018-05-08T13:12:07.192Z,27.70
2018-05-08T13:14:35.333Z,27.00
2018-05-08T13:17:03.443Z,27.60
2018-05-08T13:19:31.595Z,28.90
2018-05-08T13:21:59.720Z,27.50
2018-05-08T13:24:27.889Z,27.40
2018-05-08T13:26:56.059Z,27.30
2018-05-08T13:29:31.281Z,27.10
2018-05-08T13:31:59.428Z,27.20
2018-05-08T13:34:27.545Z,28.00
2018-05-08T13:36:55.706Z,28.60
2018-05-08T13:39:27.307Z,28.10
2018-05-08T13:41:56.263Z,27.70
2018-05-08T13:44:24.379Z,27.70
2018-05-08T13:46:52.568Z,27.90
2018-05-08T13:49:27.887Z,28.90
2018-05-08T13:51:56.801Z,27.60
2018-05-08T13:54:24.967Z,27.60
2018-05-08T13:56:53.074Z,27.80
2018-05-08T13:59:24.295Z,28.40
2018-05-08T14:01:52.483Z,28.60
2018-05-08T14:04:20.622Z,28.70
2018-05-08T14:06:49.579Z,29.30
2018-05-08T14:09:17.679Z,29.30
2018-05-08T14:11:46.591Z,29.20
2018-05-08T14:14:14.741Z,29.20
2018-05-08T14:16:43.628Z,28.80
2018-05-08T14:19:11.800Z,28.80
2018-05-08T14:21:39.828Z,27.50
2018-05-08T14:24:07.988Z,27.50
2018-05-08T14:26:36.180Z,26.80
2018-05-08T14:29:06.291Z,26.20
2018-05-08T14:31:34.513Z,26.60
2018-05-08T14:34:02.571Z,26.90
2018-05-08T14:36:30.662Z,26.40
2018-05-08T14:39:07.495Z,26.80
2018-05-08T14:41:35.602Z,26.80
2018-05-08T14:44:11.604Z,25.80
2018-05-08T14:46:39.709Z,26.60
2018-05-08T14:49:07.888Z,26.60
2018-05-08T14:51:36.097Z,26.30
2018-05-08T14:54:04.292Z,25.70
2018-05-08T14:56:32.398Z,26.00
2018-05-08T14:59:00.636Z,26.30
2018-05-08T15:01:29.538Z,26.30
2018-05-08T15:03:58.404Z,26.20
2018-05-08T15:06:26.548Z,25.30
2018-05-08T15:08:59.338Z,26.40
2018-05-08T15:11:28.221Z,26.30
2018-05-08T15:13:56.382Z,26.20
2018-05-08T15:16:24.534Z,25.00
2018-05-08T15:19:06.567Z,25.80
2018-05-08T15:21:34.667Z,25.10
2018-05-08T15:24:02.799Z,25.40
2018-05-08T15:26:30.920Z,26.20
2018-05-08T15:29:01.114Z,26.00
2018-05-08T15:31:29.217Z,26.30
2018-05-08T15:33:57.322Z,26.40
2018-05-08T15:36:25.414Z,26.60
2018-05-08T15:38:55.430Z,26.70
2018-05-08T15:41:23.519Z,26.60
2018-05-08T15:43:52.377Z,27.20
2018-05-08T15:46:21.603Z,27.40
2018-05-08T15:48:49.675Z,27.70
2018-05-08T15:51:18.533Z,27.00
2018-05-08T15:53:46.622Z,26.90
2018-05-08T15:56:15.494Z,26.50
2018-05-08T15:59:05.060Z,26.40
2018-05-08T16:01:33.138Z,26.40
2018-05-08T16:04:01.206Z,26.90
2018-05-08T16:06:29.286Z,27.20
2018-05-08T16:08:57.355Z,27.80
2018-05-08T16:11:25.451Z,28.70
2018-05-08T16:13:53.514Z,28.90
2018-05-08T16:16:21.606Z,29.20
2018-05-08T16:18:49.687Z,28.30
2018-05-08T16:21:17.770Z,29.00
2018-05-08T16:23:45.893Z,28.80
2018-05-08T16:26:13.966Z,27.90
2018-05-08T16:28:47.978Z,28.50
2018-05-08T16:31:16.053Z,28.30
2018-05-08T16:33:44.131Z,27.80
2018-05-08T16:36:12.202Z,27.80
2018-05-08T16:38:40.286Z,27.90
2018-05-08T16:41:09.129Z,28.30
2018-05-08T16:43:37.208Z,28.30
2018-05-08T16:46:05.286Z,29.00
2018-05-08T16:48:33.448Z,29.20
2018-05-08T16:51:01.496Z,30.00
2018-05-08T16:53:29.650Z,30.60
2018-05-08T16:55:57.751Z,31.70
2018-05-08T16:58:25.895Z,32.50
2018-05-08T17:00:54.008Z,33.70
2018-05-08T17:03:22.114Z,34.10
2018-05-08T17:05:50.269Z,35.10
2018-05-08T17:08:18.393Z,35.30
2018-05-08T17:10:47.503Z,35.40
2018-05-08T17:13:15.610Z,35.50
2018-05-08T17:15:43.726Z,36.70
2018-05-08T17:18:11.865Z,37.30
2018-05-08T17:20:47.510Z,37.50
2018-05-08T17:23:15.615Z,37.80
2018-05-08T17:25:44.708Z,38.70
2018-05-08T17:28:12.755Z,39.00
2018-05-08T17:30:40.877Z,39.30
2018-05-08T17:33:09.026Z,39.40
2018-05-08T17:35:38.258Z,38.90
2018-05-08T17:38:06.379Z,39.40
2018-05-08T17:40:36.272Z,39.20
2018-05-08T17:43:04.387Z,39.20
2018-05-08T17:45:32.503Z,39.60
2018-05-08T17:48:00.619Z,39.60
2018-05-08T17:50:31.510Z,41.10
2018-05-08T17:52:59.630Z,40.40
2018-05-08T17:55:28.522Z,41.40
2018-05-08T17:57:57.379Z,42.30
2018-05-08T18:00:26.395Z,42.30
2018-05-08T18:02:55.297Z,42.40
2018-05-08T18:05:24.588Z,42.10
2018-05-08T18:07:53.446Z,42.80
2018-05-08T18:10:22.503Z,42.70
2018-05-08T18:12:51.380Z,43.20
2018-05-08T18:15:19.500Z,43.20
2018-05-08T18:17:47.697Z,44.00
2018-05-08T18:20:18.504Z,44.30
2018-05-08T18:22:46.643Z,44.30
2018-05-08T18:25:14.831Z,44.90
2018-05-08T18:27:42.975Z,45.00
2018-05-08T18:30:12.138Z,45.30
2018-05-08T18:32:40.239Z,45.80
2018-05-08T18:35:09.104Z,47.10
2018-05-08T18:37:37.275Z,47.10
2018-05-08T18:40:06.271Z,60.90
2018-05-08T18:42:34.395Z,48.40
2018-05-08T18:45:02.502Z,48.40
2018-05-08T18:47:30.763Z,48.80
2018-05-08T18:50:11.867Z,49.50
2018-05-08T18:52:40.751Z,50.20
2018-05-08T18:55:09.679Z,51.00
2018-05-08T18:57:38.983Z,50.10
2018-05-08T19:00:12.644Z,50.70
2018-05-08T19:02:40.766Z,50.80
2018-05-08T19:05:08.909Z,51.30
2018-05-08T19:07:37.799Z,52.50
2018-05-08T19:10:10.295Z,52.20
2018-05-08T19:12:38.396Z,52.20
2018-05-08T19:15:12.020Z,53.00
2018-05-08T19:17:40.172Z,52.70
2018-05-08T19:20:13.759Z,52.80
2018-05-08T19:22:41.862Z,53.50
2018-05-08T19:25:09.979Z,53.20
2018-05-08T19:27:38.146Z,53.10
2018-05-08T19:30:13.571Z,53.60
2018-05-08T19:32:41.692Z,53.60
2018-05-08T19:35:15.359Z,54.50
2018-05-08T19:37:49.894Z,54.80
2018-05-08T19:40:17.985Z,54.70
2018-05-08T19:42:46.046Z,55.10
2018-05-08T19:45:14.183Z,55.80
2018-05-08T19:47:42.278Z,55.70
2018-05-08T19:50:11.366Z,56.30
2018-05-08T19:52:40.290Z,57.20
2018-05-08T19:55:08.503Z,57.10
2018-05-08T19:57:36.616Z,57.80
2018-05-08T20:00:14.798Z,57.80
2018-05-08T20:02:43.666Z,59.10
2018-05-08T20:05:11.754Z,58.50
2018-05-08T20:07:39.819Z,59.10
2018-05-08T20:10:11.893Z,59.10
2018-05-08T20:12:39.966Z,59.50
2018-05-08T20:15:08.047Z,59.80
2018-05-08T20:17:36.882Z,60.70
2018-05-08T20:20:06.931Z,60.70
2018-05-08T20:22:35.901Z,60.90
2018-05-08T20:25:03.992Z,62.10
2018-05-08T20:27:32.062Z,62.90
2018-05-08T20:30:09.364Z,64.50
2018-05-08T20:32:37.439Z,66.10
2018-05-08T20:35:05.527Z,67.30
2018-05-08T20:37:34.379Z,64.70
2018-05-08T20:40:03.378Z,64.70
2018-05-08T20:42:31.451Z,64.80
2018-05-08T20:44:59.538Z,67.40
2018-05-08T20:47:28.389Z,73.50
2018-05-08T20:50:04.874Z,73.50
2018-05-08T20:52:32.950Z,75.90
2018-05-08T20:55:01.039Z,83.50
2018-05-08T20:57:29.880Z,79.70
2018-05-08T20:59:57.959Z,79.20
2018-05-08T21:02:26.055Z,79.90
2018-05-08T21:04:54.131Z,81.00
2018-05-08T21:07:22.218Z,81.30
2018-05-08T21:09:55.681Z,83.00
2018-05-08T21:12:23.754Z,82.80
2018-05-08T21:14:51.823Z,83.80
2018-05-08T21:17:19.914Z,85.30
2018-05-08T21:19:55.855Z,86.50
2018-05-08T21:22:23.934Z,88.30
2018-05-08T21:24:52.023Z,88.40
2018-05-08T21:27:20.106Z,89.40
2018-05-08T21:29:58.981Z,89.50
2018-05-08T21:32:27.064Z,90.10
2018-05-08T21:34:55.139Z,90.60
2018-05-08T21:37:23.219Z,90.50
2018-05-08T21:39:53.251Z,90.60
2018-05-08T21:42:21.301Z,91.20
2018-05-08T21:44:49.380Z,91.50
2018-05-08T21:47:17.476Z,91.30
2018-05-08T21:49:47.238Z,91.50
2018-05-08T21:52:15.307Z,91.50
2018-05-08T21:54:43.394Z,91.50
2018-05-08T21:57:11.463Z,91.70
2018-05-08T21:59:42.615Z,91.40
2018-05-08T22:02:10.682Z,91.60
2018-05-08T22:04:38.762Z,92.20
2018-05-08T22:07:06.834Z,93.00
2018-05-08T22:09:34.911Z,93.30
2018-05-08T22:12:02.986Z,93.40
2018-05-08T22:14:31.057Z,93.70
2018-05-08T22:16:59.903Z,94.20
2018-05-08T22:19:31.690Z,94.20
2018-05-08T22:21:59.776Z,94.10
2018-05-08T22:24:28.618Z,94.20
2018-05-08T22:26:56.698Z,94.10
2018-05-08T22:29:34.514Z,95.00
2018-05-08T22:32:02.618Z,95.70
2018-05-08T22:34:31.471Z,95.50
2018-05-08T22:36:59.566Z,95.40
2018-05-08T22:39:27.649Z,95.40
2018-05-08T22:41:56.487Z,94.50
2018-05-08T22:44:24.571Z,94.50
2018-05-08T22:46:52.646Z,94.80
2018-05-08T22:49:20.738Z,95.80
2018-05-08T22:51:48.815Z,95.70
2018-05-08T22:54:17.657Z,94.90
2018-05-08T22:56:45.759Z,94.90
2018-05-08T22:59:36.219Z,94.60
2018-05-08T23:02:05.123Z,95.40
2018-05-08T23:04:33.263Z,95.40
2018-05-08T23:07:01.410Z,96.30
2018-05-08T23:09:58.158Z,96.70
2018-05-08T23:12:27.000Z,96.80
2018-05-08T23:14:55.069Z,96.80
2018-05-08T23:17:23.150Z,96.90
2018-05-08T23:19:52.221Z,97.20
2018-05-08T23:22:20.335Z,97.50
2018-05-08T23:24:48.414Z,97.80
2018-05-08T23:27:16.546Z,98.10
2018-05-08T23:29:48.047Z,98.50
2018-05-08T23:32:16.928Z,99.30
2018-05-08T23:34:45.087Z,99.20
2018-05-08T23:37:13.199Z,99.00
2018-05-08T23:39:41.323Z,98.60
2018-05-08T23:42:09.448Z,98.80
2018-05-08T23:44:37.567Z,99.00
2018-05-08T23:47:05.679Z,99.10
2018-05-08T23:49:48.462Z,99.40
2018-05-08T23:52:16.588Z,99.30
2018-05-08T23:54:44.737Z,99.20
2018-05-08T23:57:13.644Z,99.50
2018-05-08T23:59:41.774Z,99.50
